Terminal Aerodrome Forecast
Issued by NWS

Home | Current Version | Previous Version | Text Only | Print | Product List | Glossary On
Versions: 1 2 3 4 5 6 7 8 9 10 11 12 13 14 15 16 17 18 19
000
FTUS43 KOAX 280627 AAA
TAFCDR
TAF AMD
KCDR 280627Z 2806/2906 VRB03KT P6SM BKN025
     FM280900 VRB03KT 5SM BR OVC020
     FM281800 16006KT P6SM BKN050=

USA.gov is the U.S. government's official web portal to all federal, state and local government web resources and services.